createdAt,value
2023-01-17T00:02:21.469Z,1.75
2023-01-17T00:05:07.271Z,4.38
2023-01-17T00:07:53.399Z,2.10
2023-01-17T00:10:22.645Z,2.13
2023-01-17T00:13:01.255Z,3.40
2023-01-17T00:15:30.724Z,2.05
2023-01-17T00:17:58.256Z,2.25
2023-01-17T00:20:49.134Z,2.88
2023-01-17T00:23:35.956Z,6.07
2023-01-17T00:26:03.359Z,2.05
2023-01-17T00:28:38.555Z,1.85
2023-01-17T00:31:07.638Z,1.70
2023-01-17T00:33:35.168Z,1.95
2023-01-17T00:36:03.871Z,1.77
2023-01-17T00:38:33.280Z,2.67
2023-01-17T00:41:08.603Z,2.47
2023-01-17T00:43:54.532Z,3.50
2023-01-17T00:46:40.608Z,2.17
2023-01-17T00:49:26.697Z,3.45
2023-01-17T00:52:12.175Z,2.35
2023-01-17T00:54:57.543Z,1.88
2023-01-17T00:57:42.904Z,2.65
2023-01-17T01:00:29.237Z,2.08
2023-01-17T01:03:14.577Z,3.63
2023-01-17T01:06:00.018Z,2.00
2023-01-17T01:08:47.549Z,1.95
2023-01-17T01:11:36.804Z,4.45
2023-01-17T01:14:22.949Z,3.28
2023-01-17T01:17:09.061Z,2.60
2023-01-17T01:19:54.419Z,4.07
2023-01-17T01:22:40.032Z,2.13
2023-01-17T01:25:25.752Z,3.20
2023-01-17T01:28:11.133Z,3.85
2023-01-17T01:30:56.870Z,2.65
2023-01-17T01:33:23.727Z,3.30
2023-01-17T01:35:55.543Z,2.58
2023-01-17T01:38:27.173Z,2.67
2023-01-17T01:40:56.528Z,5.07
2023-01-17T01:43:56.066Z,5.32
2023-01-17T01:46:38.741Z,6.03
2023-01-17T01:49:13.055Z,5.15
2023-01-17T01:51:43.135Z,5.63
2023-01-17T01:54:19.437Z,2.92
2023-01-17T01:56:47.968Z,4.32
2023-01-17T01:59:16.747Z,5.03
2023-01-17T02:01:43.870Z,4.60
2023-01-17T02:04:12.039Z,3.47
2023-01-17T02:06:49.022Z,3.40
2023-01-17T02:09:17.899Z,7.75
2023-01-17T02:11:46.845Z,5.63
2023-01-17T02:14:18.821Z,4.03
2023-01-17T02:16:54.636Z,3.47
2023-01-17T02:19:24.351Z,7.13
2023-01-17T02:22:28.790Z,4.18
2023-01-17T02:25:33.390Z,4.60
2023-01-17T02:28:35.544Z,7.45
2023-01-17T02:31:14.742Z,5.40
2023-01-17T02:34:06.918Z,3.63
2023-01-17T02:36:38.050Z,6.10
2023-01-17T02:39:31.255Z,4.70
2023-01-17T02:42:05.684Z,5.03
2023-01-17T02:44:40.958Z,5.43
2023-01-17T02:47:21.235Z,5.97
2023-01-17T02:49:48.221Z,6.50
2023-01-17T02:52:29.369Z,3.90
2023-01-17T02:55:25.018Z,4.30
2023-01-17T02:58:13.262Z,8.07
2023-01-17T03:00:59.096Z,6.57
2023-01-17T03:03:42.003Z,4.00
2023-01-17T03:06:29.876Z,5.03
2023-01-17T03:08:56.819Z,3.75
2023-01-17T03:11:23.993Z,5.05
2023-01-17T03:13:56.685Z,3.80
2023-01-17T03:16:25.926Z,5.05
2023-01-17T03:18:53.969Z,4.55
2023-01-17T03:21:22.151Z,5.03
2023-01-17T03:23:50.533Z,3.95
2023-01-17T03:26:17.833Z,3.97
2023-01-17T03:28:44.899Z,5.80
2023-01-17T03:31:16.230Z,5.10
2023-01-17T03:33:43.425Z,4.68
2023-01-17T03:36:12.156Z,4.10
2023-01-17T03:38:39.294Z,4.45
2023-01-17T03:41:07.142Z,4.68
2023-01-17T03:43:34.155Z,4.13
2023-01-17T03:46:06.331Z,4.20
2023-01-17T03:48:34.180Z,5.55
2023-01-17T03:51:01.170Z,5.05
2023-01-17T03:53:28.168Z,5.13
2023-01-17T03:55:55.196Z,4.30
2023-01-17T03:58:22.142Z,5.93
2023-01-17T04:00:49.070Z,6.03
2023-01-17T04:03:16.023Z,4.60
2023-01-17T04:05:43.130Z,6.20
2023-01-17T04:08:10.083Z,4.55
2023-01-17T04:10:38.043Z,6.38
2023-01-17T04:13:06.119Z,5.00
2023-01-17T04:15:33.793Z,5.07
2023-01-17T04:18:01.254Z,4.80
2023-01-17T04:20:36.936Z,7.30
2023-01-17T04:23:04.221Z,5.13
2023-01-17T04:25:31.296Z,6.80
2023-01-17T04:28:00.099Z,5.10
2023-01-17T04:30:28.697Z,5.53
2023-01-17T04:32:56.342Z,4.55
2023-01-17T04:35:24.577Z,6.25
2023-01-17T04:37:51.954Z,4.68
2023-01-17T04:40:19.251Z,8.25
2023-01-17T04:42:46.407Z,6.57
2023-01-17T04:45:15.042Z,4.15
2023-01-17T04:47:42.056Z,4.70
2023-01-17T04:50:10.967Z,7.68
2023-01-17T04:52:37.937Z,6.60
2023-01-17T04:55:06.006Z,5.32
2023-01-17T04:57:33.060Z,5.63
2023-01-17T05:00:02.695Z,4.93
2023-01-17T05:02:29.670Z,5.07
2023-01-17T05:04:56.667Z,7.05
2023-01-17T05:07:23.554Z,6.50
2023-01-17T05:09:50.477Z,5.05
2023-01-17T05:12:17.594Z,4.47
2023-01-17T05:14:44.543Z,5.07
2023-01-17T05:17:11.516Z,6.72
2023-01-17T05:19:38.426Z,4.32
2023-01-17T05:22:15.171Z,8.15
2023-01-17T05:24:46.706Z,5.05
2023-01-17T05:27:14.779Z,6.65
2023-01-17T05:29:41.837Z,6.82
2023-01-17T05:32:08.775Z,7.25
2023-01-17T05:34:35.746Z,8.27
2023-01-17T05:37:05.233Z,4.40
2023-01-17T05:39:32.174Z,5.80
2023-01-17T05:41:59.809Z,6.95
2023-01-17T05:44:27.746Z,6.15
2023-01-17T05:46:55.482Z,8.90
2023-01-17T05:49:22.507Z,6.40
2023-01-17T05:51:49.565Z,4.72
2023-01-17T05:54:16.844Z,4.88
2023-01-17T05:56:43.943Z,6.38
2023-01-17T05:59:13.947Z,7.68
2023-01-17T06:01:41.137Z,4.57
2023-01-17T06:04:08.071Z,7.47
2023-01-17T06:06:35.220Z,7.20
2023-01-17T06:09:02.516Z,7.18
2023-01-17T06:11:29.436Z,6.10
2023-01-17T06:13:56.411Z,7.18
2023-01-17T06:16:23.423Z,7.60
2023-01-17T06:18:50.752Z,14.23
2023-01-17T06:21:17.771Z,7.15
2023-01-17T06:23:44.719Z,9.85
2023-01-17T06:26:11.715Z,7.00
2023-01-17T06:28:38.692Z,7.72
2023-01-17T06:31:07.878Z,7.88
2023-01-17T06:33:34.981Z,6.93
2023-01-17T06:36:02.165Z,7.00
2023-01-17T06:38:30.196Z,8.77
2023-01-17T06:41:00.300Z,7.05
2023-01-17T06:43:32.570Z,8.10
2023-01-17T06:46:00.793Z,9.98
2023-01-17T06:48:28.109Z,7.97
2023-01-17T06:50:56.994Z,8.65
2023-01-17T06:53:24.009Z,8.77
2023-01-17T06:55:51.048Z,8.25
2023-01-17T06:58:17.968Z,6.68
2023-01-17T07:00:44.927Z,10.10
2023-01-17T07:03:20.207Z,5.78
2023-01-17T07:05:48.286Z,6.47
2023-01-17T07:08:16.977Z,5.80
2023-01-17T07:10:48.019Z,19.95
2023-01-17T07:13:15.179Z,23.52
2023-01-17T07:15:42.392Z,23.30
2023-01-17T07:18:09.425Z,20.65
2023-01-17T07:20:36.433Z,21.50
2023-01-17T07:23:03.464Z,34.03
2023-01-17T07:25:30.426Z,19.23
2023-01-17T07:27:57.742Z,19.02
2023-01-17T07:30:25.298Z,18.23
2023-01-17T07:32:53.574Z,16.52
2023-01-17T07:35:21.127Z,12.55
2023-01-17T07:37:49.478Z,17.77
2023-01-17T07:40:17.586Z,19.35
2023-01-17T07:42:45.059Z,10.40
2023-01-17T15:34:59.437Z,7.25
2023-01-17T15:37:32.696Z,19.70
2023-01-17T15:40:02.711Z,15.15
2023-01-17T15:42:31.857Z,11.00
2023-01-17T15:45:01.997Z,4.53
2023-01-17T15:47:35.473Z,3.38
2023-01-17T15:50:26.319Z,5.15
2023-01-17T15:53:03.525Z,6.63
2023-01-17T15:55:40.036Z,7.00
2023-01-17T15:58:27.935Z,5.10
2023-01-17T16:00:55.652Z,5.13
2023-01-17T16:03:31.647Z,6.63
2023-01-17T16:06:01.237Z,4.75
2023-01-17T16:08:31.633Z,7.63
2023-01-17T16:11:02.326Z,5.03
2023-01-17T16:13:32.196Z,7.40
2023-01-17T16:16:13.796Z,5.07
2023-01-17T16:18:41.480Z,4.03
2023-01-17T16:21:28.607Z,4.25
2023-01-17T16:23:56.501Z,4.82
2023-01-17T16:26:24.232Z,4.45
2023-01-17T16:28:51.543Z,10.02
2023-01-17T16:31:19.353Z,6.00
2023-01-17T16:33:49.360Z,6.72
2023-01-17T16:36:17.348Z,9.55
2023-01-17T16:38:45.286Z,8.80
2023-01-17T16:41:12.687Z,6.10
2023-01-17T16:43:39.871Z,5.32
2023-01-17T16:46:07.175Z,10.55
2023-01-17T16:48:34.158Z,8.13
2023-01-17T16:51:06.325Z,10.25
2023-01-17T16:53:33.445Z,11.77
2023-01-17T16:56:09.522Z,10.50
2023-01-17T16:58:36.738Z,11.68
2023-01-17T17:01:15.433Z,8.45
2023-01-17T17:03:44.084Z,9.18
2023-01-17T17:06:11.759Z,7.72
2023-01-17T17:08:39.790Z,10.57
2023-01-17T17:11:25.219Z,9.48
2023-01-17T17:13:52.690Z,6.57
2023-01-17T17:16:23.186Z,7.63
2023-01-17T17:18:58.994Z,6.13
2023-01-17T17:21:28.052Z,7.50
2023-01-17T17:23:57.038Z,12.82
2023-01-17T17:26:26.848Z,16.60
2023-01-17T17:28:54.820Z,9.88
2023-01-17T17:31:21.948Z,7.60
2023-01-17T17:33:49.067Z,13.77
2023-01-17T17:36:17.539Z,9.35
2023-01-17T17:38:54.299Z,8.52
2023-01-17T17:41:24.249Z,8.93
2023-01-17T17:43:52.375Z,13.07
2023-01-17T17:46:21.110Z,9.63
2023-01-17T17:48:48.275Z,14.38
2023-01-17T17:51:26.865Z,12.07
2023-01-17T17:53:55.709Z,12.48
2023-01-17T17:56:23.770Z,12.73
2023-01-17T17:58:50.970Z,11.50
2023-01-17T18:01:21.568Z,11.30
2023-01-17T18:03:55.335Z,14.32
2023-01-17T18:06:22.824Z,12.57
2023-01-17T18:08:51.912Z,8.98
2023-01-17T18:11:22.599Z,9.70
2023-01-17T18:13:51.118Z,21.25
2023-01-17T18:16:27.117Z,19.85
2023-01-17T18:18:56.131Z,17.50
2023-01-17T18:21:25.230Z,18.20
2023-01-17T18:23:58.865Z,17.40
2023-01-17T18:26:29.016Z,18.40
2023-01-17T18:28:57.781Z,16.88
2023-01-17T18:31:27.173Z,17.95
2023-01-17T18:33:59.878Z,22.63
2023-01-17T18:36:28.853Z,25.65
2023-01-17T18:38:55.963Z,21.40
2023-01-17T18:41:28.368Z,16.33
2023-01-17T18:43:59.005Z,19.50
2023-01-17T18:46:26.813Z,22.27
2023-01-17T18:48:57.064Z,17.38
2023-01-17T18:51:25.050Z,12.93
2023-01-17T18:53:54.887Z,13.52
2023-01-17T18:56:23.179Z,12.32
2023-01-17T18:58:51.099Z,10.20
2023-01-17T19:01:25.301Z,15.57
2023-01-17T19:03:55.759Z,14.90
2023-01-17T19:06:31.910Z,15.70
2023-01-17T19:08:59.515Z,16.50
2023-01-17T19:11:28.069Z,18.55
2023-01-17T19:13:55.969Z,18.00
2023-01-17T19:16:29.529Z,16.83
2023-01-17T19:18:58.420Z,12.30
2023-01-17T19:21:27.546Z,14.50
2023-01-17T19:23:55.886Z,13.10
2023-01-17T19:26:24.952Z,15.95
2023-01-17T19:28:52.999Z,17.63
2023-01-17T19:31:22.850Z,13.48
2023-01-17T19:33:52.499Z,17.25
2023-01-17T19:36:23.668Z,15.52
2023-01-17T19:39:03.366Z,15.48
2023-01-17T19:41:32.172Z,14.95
2023-01-17T19:44:07.627Z,16.65
2023-01-17T19:46:35.975Z,18.92
2023-01-17T19:49:04.576Z,17.27
2023-01-17T19:51:31.606Z,14.77
2023-01-17T19:54:01.353Z,13.95
2023-01-17T19:56:28.839Z,16.58
2023-01-17T19:59:01.812Z,14.18
2023-01-17T20:01:32.348Z,11.75
2023-01-17T20:04:01.054Z,19.23
2023-01-17T20:06:30.933Z,16.50
2023-01-17T20:08:58.308Z,14.07
2023-01-17T20:11:27.173Z,20.63
2023-01-17T20:13:56.735Z,23.65
2023-01-17T20:16:25.501Z,23.42
2023-01-17T20:18:53.005Z,29.35
2023-01-17T20:21:22.798Z,21.55
2023-01-17T20:23:51.604Z,21.98
2023-01-17T20:26:21.906Z,25.80
2023-01-17T20:28:51.483Z,22.52
2023-01-17T20:31:24.183Z,17.55
2023-01-17T20:33:54.800Z,20.75
2023-01-17T20:36:24.799Z,20.38
2023-01-17T20:38:53.292Z,18.35
2023-01-17T20:41:23.349Z,21.13
2023-01-17T20:43:55.389Z,23.38
2023-01-17T20:46:24.894Z,19.55
2023-01-17T20:48:56.202Z,17.10
2023-01-17T20:51:26.190Z,19.10
2023-01-17T20:53:59.183Z,16.42
2023-01-17T20:56:27.108Z,17.52
2023-01-17T20:58:54.600Z,19.02
2023-01-17T21:01:23.350Z,20.27
2023-01-17T21:03:53.898Z,19.15
2023-01-17T21:06:23.186Z,16.27
2023-01-17T21:08:50.794Z,20.15
2023-01-17T21:11:23.314Z,19.80
2023-01-17T21:13:51.297Z,17.20
2023-01-17T21:16:20.454Z,18.27
2023-01-17T21:18:49.005Z,14.68
2023-01-17T21:21:24.348Z,16.70
2023-01-17T21:23:54.048Z,17.83
2023-01-17T21:26:22.366Z,15.23
2023-01-17T21:28:50.822Z,16.75
2023-01-17T21:31:24.970Z,19.35
2023-01-17T21:33:57.033Z,17.27
2023-01-17T21:36:26.752Z,17.98
2023-01-17T21:38:56.977Z,17.58
2023-01-17T21:41:28.976Z,16.92
2023-01-17T21:44:01.548Z,17.50
2023-01-17T21:46:29.314Z,16.17
2023-01-17T21:48:57.605Z,17.77
2023-01-17T21:51:45.327Z,13.07
2023-01-17T21:54:12.488Z,14.70
2023-01-17T21:56:57.995Z,15.43
2023-01-17T21:59:25.040Z,19.40
2023-01-17T22:01:52.031Z,22.73
2023-01-17T22:04:19.043Z,15.00
2023-01-17T22:06:46.594Z,14.95
2023-01-17T22:09:15.250Z,16.20
2023-01-17T22:11:42.266Z,14.48
2023-01-17T22:14:09.570Z,16.85
2023-01-17T22:16:36.471Z,19.55
2023-01-17T22:19:03.420Z,16.90
2023-01-17T22:21:30.507Z,21.73
2023-01-17T22:23:59.716Z,18.52
2023-01-17T22:26:30.304Z,14.40
2023-01-17T22:29:00.852Z,17.25
2023-01-17T22:31:28.287Z,17.63
2023-01-17T22:34:00.997Z,18.60
2023-01-17T22:36:29.285Z,17.38
2023-01-17T22:38:56.906Z,17.88
2023-01-17T22:41:27.920Z,17.42
2023-01-17T22:43:58.533Z,15.85
2023-01-17T22:46:28.562Z,20.27
2023-01-17T22:48:56.676Z,18.13
2023-01-17T22:51:26.092Z,16.52
2023-01-17T22:53:55.744Z,21.27
2023-01-17T22:56:28.942Z,17.00
2023-01-17T22:58:55.993Z,20.02
2023-01-17T23:01:26.320Z,17.33
2023-01-17T23:04:04.132Z,15.38
2023-01-17T23:06:38.761Z,15.85
2023-01-17T23:09:10.586Z,12.00
2023-01-17T23:11:43.303Z,16.90
2023-01-17T23:14:19.361Z,16.83
2023-01-17T23:17:20.945Z,15.00
2023-01-17T23:19:51.125Z,15.23
2023-01-17T23:22:26.942Z,18.05
2023-01-17T23:25:04.004Z,15.02
2023-01-17T23:28:04.005Z,10.90
2023-01-17T23:30:36.643Z,15.13
2023-01-17T23:33:07.399Z,13.75
2023-01-17T23:35:42.243Z,12.20
2023-01-17T23:38:29.618Z,15.88
2023-01-17T23:41:25.849Z,12.73
2023-01-17T23:43:54.433Z,12.25
2023-01-17T23:46:22.274Z,14.85
2023-01-17T23:48:49.295Z,13.18
2023-01-17T23:51:16.288Z,14.20
2023-01-17T23:53:43.285Z,12.82
2023-01-17T23:56:19.698Z,15.52
2023-01-17T23:58:47.001Z,19.05
